createdAt,value
2018-10-01T00:00:17.994Z,12.80
2018-10-01T00:02:46.613Z,12.80
2018-10-01T00:05:15.162Z,12.80
2018-10-01T00:07:43.726Z,12.70
2018-10-01T00:10:12.359Z,12.70
2018-10-01T00:12:41.593Z,12.70
2018-10-01T00:15:10.245Z,12.70
2018-10-01T00:17:38.890Z,12.70
2018-10-01T00:20:12.785Z,12.70
2018-10-01T00:22:46.839Z,12.70
2018-10-01T00:25:15.837Z,12.70
2018-10-01T00:27:44.837Z,12.70
2018-10-01T00:30:13.385Z,12.70
2018-10-01T00:32:42.307Z,12.70
2018-10-01T00:35:11.390Z,12.70
2018-10-01T00:37:39.949Z,12.70
2018-10-01T00:40:08.699Z,12.70
2018-10-01T00:42:37.766Z,12.70
2018-10-01T00:45:07.019Z,12.70
2018-10-01T00:47:35.639Z,12.70
2018-10-01T00:50:04.362Z,12.80
2018-10-01T00:52:32.948Z,12.70
2018-10-01T00:55:01.535Z,12.60
2018-10-01T00:57:30.150Z,12.60
2018-10-01T00:59:58.695Z,12.50
2018-10-01T01:02:27.273Z,12.40
2018-10-01T01:04:55.876Z,12.30
2018-10-01T01:07:24.489Z,12.30
2018-10-01T01:09:53.075Z,12.20
2018-10-01T01:12:21.681Z,12.20
2018-10-01T01:14:50.280Z,12.20
2018-10-01T01:17:19.627Z,12.10
2018-10-01T01:19:48.164Z,12.10
2018-10-01T01:22:16.796Z,12.10
2018-10-01T01:24:46.128Z,12.00
2018-10-01T01:27:15.518Z,12.00
2018-10-01T01:29:44.212Z,12.00
2018-10-01T01:32:12.744Z,11.90
2018-10-01T01:34:41.299Z,11.80
2018-10-01T01:37:09.844Z,11.70
2018-10-01T01:39:38.423Z,11.70
2018-10-01T01:42:07.081Z,11.60
2018-10-01T01:44:35.757Z,11.60
2018-10-01T01:47:04.306Z,11.60
2018-10-01T01:49:33.406Z,11.50
2018-10-01T01:52:02.020Z,11.50
2018-10-01T01:54:30.745Z,11.50
2018-10-01T01:56:59.398Z,11.50
2018-10-01T01:59:28.052Z,11.50
2018-10-01T02:01:56.575Z,11.50
2018-10-01T02:04:25.464Z,11.50
2018-10-01T02:06:54.018Z,11.50
2018-10-01T02:09:22.574Z,11.50
2018-10-01T02:11:51.655Z,11.50
2018-10-01T02:14:20.552Z,11.50
2018-10-01T02:16:49.410Z,11.50
2018-10-01T02:19:18.091Z,11.50
2018-10-01T02:21:46.708Z,11.50
2018-10-01T02:24:15.269Z,11.50
2018-10-01T02:26:43.804Z,11.40
2018-10-01T02:29:12.412Z,11.40
2018-10-01T02:31:40.994Z,11.40
2018-10-01T02:34:09.665Z,11.40
2018-10-01T02:36:38.289Z,11.40
2018-10-01T02:39:11.207Z,11.50
2018-10-01T02:41:39.808Z,11.50
2018-10-01T02:44:08.355Z,11.50
2018-10-01T02:46:37.285Z,11.40
2018-10-01T02:49:05.895Z,11.40
2018-10-01T02:51:40.043Z,11.30
2018-10-01T02:54:39.623Z,11.30
2018-10-01T02:57:08.233Z,11.30
2018-10-01T02:59:36.879Z,11.30
2018-10-01T03:02:05.480Z,11.20
2018-10-01T03:04:34.016Z,11.10
2018-10-01T03:07:02.686Z,11.10
2018-10-01T03:09:31.332Z,11.00
2018-10-01T03:11:59.940Z,11.10
2018-10-01T03:14:28.488Z,11.10
2018-10-01T03:16:57.082Z,11.20
2018-10-01T03:19:25.685Z,11.20
2018-10-01T03:21:54.212Z,11.20
2018-10-01T03:24:22.780Z,11.20
2018-10-01T03:26:51.360Z,11.20
2018-10-01T03:29:19.930Z,11.30
2018-10-01T03:31:48.869Z,11.20
2018-10-01T03:34:17.503Z,11.20
2018-10-01T03:36:46.012Z,11.10
2018-10-01T03:39:14.746Z,11.10
2018-10-01T03:41:44.378Z,11.00
2018-10-01T03:44:13.110Z,11.10
2018-10-01T03:46:41.864Z,11.10
2018-10-01T03:49:10.655Z,11.30
2018-10-01T03:51:39.210Z,11.40
2018-10-01T03:54:08.090Z,11.50
2018-10-01T03:56:36.706Z,11.50
2018-10-01T03:59:05.276Z,11.50
2018-10-01T04:01:33.925Z,11.50
2018-10-01T04:04:02.497Z,11.40
2018-10-01T04:06:31.767Z,11.40
2018-10-01T04:09:00.354Z,11.30
2018-10-01T04:11:29.015Z,11.10
2018-10-01T04:13:57.546Z,11.00
2018-10-01T04:16:26.248Z,11.00
2018-10-01T04:18:54.828Z,10.90
2018-10-01T04:21:23.495Z,10.80
2018-10-01T04:23:52.706Z,10.80
2018-10-01T04:26:21.428Z,10.80
2018-10-01T04:28:50.010Z,10.80
2018-10-01T04:31:18.584Z,10.80
2018-10-01T04:33:47.141Z,10.80
2018-10-01T04:36:15.699Z,10.80
2018-10-01T04:38:44.237Z,10.90
2018-10-01T04:41:12.968Z,11.00
2018-10-01T04:43:42.698Z,11.10
2018-10-01T04:46:11.339Z,11.20
2018-10-01T04:48:39.896Z,11.20
2018-10-01T04:51:08.477Z,11.20
2018-10-01T04:53:36.997Z,11.20
2018-10-01T04:56:05.590Z,11.20
2018-10-01T04:58:34.307Z,11.30
2018-10-01T05:01:02.769Z,11.40
2018-10-01T05:03:31.429Z,11.50
2018-10-01T05:06:00.587Z,11.50
2018-10-01T05:08:29.431Z,11.40
2018-10-01T05:10:58.189Z,11.40
2018-10-01T05:13:26.773Z,11.50
2018-10-01T05:15:55.329Z,11.50
2018-10-01T05:18:23.878Z,11.50
2018-10-01T05:20:52.545Z,11.40
2018-10-01T05:23:21.076Z,11.40
2018-10-01T05:25:49.614Z,11.50
2018-10-01T05:28:18.255Z,11.50
2018-10-01T05:30:46.860Z,11.50
2018-10-01T05:33:15.477Z,11.50
2018-10-01T05:35:44.022Z,11.40
2018-10-01T05:38:12.624Z,11.40
2018-10-01T05:40:41.165Z,11.40
2018-10-01T05:43:09.731Z,11.50
2018-10-01T05:45:38.313Z,11.60
2018-10-01T05:48:06.853Z,11.60
2018-10-01T05:50:35.615Z,11.70
2018-10-01T05:53:04.335Z,11.60
2018-10-01T05:55:32.904Z,11.60
2018-10-01T05:58:01.529Z,11.50
2018-10-01T06:00:30.152Z,11.60
2018-10-01T06:02:59.331Z,11.60
2018-10-01T06:05:28.009Z,11.70
2018-10-01T06:07:56.637Z,11.70
2018-10-01T06:10:25.312Z,11.70
2018-10-01T06:12:53.910Z,11.70
2018-10-01T06:15:22.457Z,11.70
2018-10-01T06:17:51.130Z,11.70
2018-10-01T06:20:19.855Z,11.70
2018-10-01T06:22:48.450Z,11.70
2018-10-01T06:25:17.109Z,11.60
2018-10-01T06:27:45.665Z,11.60
2018-10-01T06:30:14.217Z,11.70
2018-10-01T06:32:42.798Z,11.80
2018-10-01T06:35:11.377Z,11.80
2018-10-01T06:37:40.117Z,11.80
2018-10-01T06:40:08.764Z,11.70
2018-10-01T06:42:37.386Z,11.60
2018-10-01T06:45:05.960Z,11.60
2018-10-01T06:47:34.549Z,11.60
2018-10-01T06:50:03.135Z,11.70
2018-10-01T06:52:31.640Z,11.80
2018-10-01T06:55:00.209Z,11.90
2018-10-01T06:57:28.759Z,12.00
2018-10-01T06:59:57.538Z,12.00
2018-10-01T07:02:26.210Z,12.00
2018-10-01T07:04:55.036Z,12.00
2018-10-01T07:07:23.721Z,11.80
2018-10-01T07:09:52.581Z,11.80
2018-10-01T07:12:21.112Z,11.80
2018-10-01T07:14:49.638Z,12.20
2018-10-01T07:17:18.383Z,12.80
2018-10-01T07:19:47.537Z,13.50
2018-10-01T07:22:16.173Z,14.10
2018-10-01T07:24:44.716Z,14.40
2018-10-01T07:27:13.415Z,14.10
2018-10-01T07:29:42.001Z,13.60
2018-10-01T07:32:10.736Z,13.20
2018-10-01T07:34:39.248Z,12.90
2018-10-01T07:37:08.233Z,12.70
2018-10-01T07:39:36.769Z,12.60
2018-10-01T07:42:05.548Z,12.60
2018-10-01T07:44:34.624Z,12.70
2018-10-01T07:47:03.329Z,12.70
2018-10-01T07:49:31.836Z,12.50
2018-10-01T07:52:01.257Z,12.40
2018-10-01T07:54:36.639Z,12.30
2018-10-01T07:57:05.211Z,12.20
2018-10-01T07:59:33.765Z,12.40
2018-10-01T08:02:02.343Z,12.60
2018-10-01T08:04:30.915Z,12.80
2018-10-01T08:06:59.452Z,12.80
2018-10-01T08:09:27.986Z,12.70
2018-10-01T08:11:56.520Z,12.60
2018-10-01T08:14:25.170Z,12.60
2018-10-01T08:16:53.715Z,12.70
2018-10-01T08:19:22.343Z,12.90
2018-10-01T08:21:50.900Z,13.00
2018-10-01T08:24:19.450Z,13.10
2018-10-01T08:26:47.987Z,13.10
2018-10-01T08:29:17.006Z,13.10
2018-10-01T08:31:45.857Z,13.00
2018-10-01T08:34:14.433Z,13.00
2018-10-01T08:36:43.092Z,12.80
2018-10-01T08:39:13.565Z,12.90
2018-10-01T08:41:42.689Z,13.20
2018-10-01T08:44:12.520Z,13.50
2018-10-01T08:46:41.065Z,13.70
2018-10-01T08:49:46.308Z,14.00
2018-10-01T08:52:20.325Z,13.90
2018-10-01T08:54:49.707Z,13.70
2018-10-01T08:57:18.304Z,13.60
2018-10-01T08:59:46.929Z,13.70
2018-10-01T09:02:15.568Z,14.00
2018-10-01T09:04:44.121Z,14.30
2018-10-01T09:07:12.687Z,14.50
2018-10-01T09:09:41.420Z,14.70
2018-10-01T09:12:10.417Z,14.80
2018-10-01T09:14:39.100Z,14.70
2018-10-01T09:17:07.598Z,14.80
2018-10-01T09:19:36.141Z,14.90
2018-10-01T09:22:04.719Z,15.10
2018-10-01T09:24:33.279Z,15.00
2018-10-01T09:27:01.994Z,14.90
2018-10-01T09:29:31.470Z,14.90
2018-10-01T09:31:59.963Z,14.90
2018-10-01T09:34:28.474Z,14.90
2018-10-01T09:36:57.036Z,14.80
2018-10-01T09:39:25.610Z,14.90
2018-10-01T09:41:54.252Z,15.00
2018-10-01T09:44:22.878Z,15.00
2018-10-01T09:46:52.252Z,15.00
2018-10-01T09:49:21.189Z,15.30
2018-10-01T09:51:49.793Z,15.80
2018-10-01T09:54:18.613Z,15.70
2018-10-01T09:56:48.317Z,15.70
2018-10-01T09:59:16.930Z,16.30
2018-10-01T10:01:45.530Z,16.30
2018-10-01T10:04:14.721Z,16.10
2018-10-01T10:06:43.406Z,15.70
2018-10-01T10:09:12.330Z,16.00
2018-10-01T10:11:41.150Z,17.50
2018-10-01T10:14:10.464Z,19.00
2018-10-01T10:16:39.288Z,20.40
2018-10-01T10:19:07.726Z,21.70
2018-10-01T10:21:36.320Z,22.40
2018-10-01T10:24:04.889Z,22.60
2018-10-01T10:26:33.685Z,21.70
2018-10-01T10:29:02.256Z,20.90
2018-10-01T10:31:30.823Z,20.80
2018-10-01T10:33:59.483Z,20.50
2018-10-01T10:36:28.268Z,20.10
2018-10-01T10:38:56.831Z,19.50
2018-10-01T10:41:25.474Z,19.20
2018-10-01T10:43:54.051Z,19.00
2018-10-01T10:46:22.612Z,18.70
2018-10-01T10:48:51.222Z,18.80
2018-10-01T10:51:19.981Z,19.20
2018-10-01T10:53:48.524Z,19.70
2018-10-01T10:56:17.284Z,20.10
2018-10-01T10:58:45.749Z,19.90
2018-10-01T11:01:14.289Z,19.50
2018-10-01T11:03:42.986Z,19.20
2018-10-01T11:06:11.516Z,18.80
2018-10-01T11:08:40.166Z,18.60
2018-10-01T11:11:08.686Z,18.50
2018-10-01T11:13:37.197Z,18.50
2018-10-01T11:16:05.775Z,18.40
2018-10-01T11:18:34.543Z,18.40
2018-10-01T11:21:03.223Z,18.40
2018-10-01T11:23:31.611Z,18.50
2018-10-01T11:26:00.237Z,18.60
2018-10-01T11:28:28.873Z,18.40
2018-10-01T11:30:57.471Z,18.40
2018-10-01T11:33:26.192Z,18.10
2018-10-01T11:35:54.630Z,18.10
2018-10-01T11:38:23.193Z,18.60
2018-10-01T11:40:51.963Z,19.00
2018-10-01T11:43:20.678Z,19.20
2018-10-01T11:45:49.349Z,19.80
2018-10-01T11:48:17.982Z,19.80
2018-10-01T11:50:47.260Z,19.20
2018-10-01T11:53:15.895Z,18.70
2018-10-01T11:55:44.484Z,18.50
2018-10-01T11:58:13.170Z,18.80
2018-10-01T12:00:41.887Z,19.60
2018-10-01T12:03:10.508Z,20.80
2018-10-01T12:05:39.107Z,21.80
2018-10-01T12:08:07.767Z,22.50
2018-10-01T12:10:36.529Z,23.10
2018-10-01T12:13:05.167Z,22.30
2018-10-01T12:15:33.828Z,21.20
2018-10-01T12:18:02.432Z,20.50
2018-10-01T12:20:31.128Z,20.40
2018-10-01T12:22:59.703Z,20.60
2018-10-01T12:25:34.939Z,20.70
2018-10-01T12:28:03.710Z,20.70
2018-10-01T12:30:32.325Z,20.90
2018-10-01T12:33:01.080Z,20.80
2018-10-01T12:35:29.742Z,20.80
2018-10-01T12:37:58.409Z,20.60
2018-10-01T12:40:27.208Z,20.30
2018-10-01T12:42:55.969Z,20.00
2018-10-01T12:45:24.808Z,20.00
2018-10-01T12:47:53.524Z,20.10
2018-10-01T12:50:22.310Z,20.30
2018-10-01T12:52:51.054Z,20.00
2018-10-01T12:55:19.637Z,19.60
2018-10-01T12:57:48.373Z,19.30
2018-10-01T13:00:17.773Z,19.20
2018-10-01T13:02:46.433Z,18.90
2018-10-01T13:05:15.158Z,18.50
2018-10-01T13:07:44.175Z,18.20
2018-10-01T13:10:13.289Z,17.80
2018-10-01T13:12:41.996Z,17.50
2018-10-01T13:15:10.596Z,18.20
2018-10-01T13:17:39.300Z,18.40
2018-10-01T13:20:08.041Z,18.00
2018-10-01T13:22:36.841Z,17.70
2018-10-01T13:25:05.934Z,18.70
2018-10-01T13:27:34.541Z,19.80
2018-10-01T13:30:03.351Z,20.40
2018-10-01T13:32:32.191Z,20.10
2018-10-01T13:35:00.900Z,19.20
2018-10-01T13:37:29.522Z,18.60
2018-10-01T13:39:58.132Z,18.70
2018-10-01T13:42:26.691Z,18.50
2018-10-01T13:44:55.338Z,18.30
2018-10-01T13:47:24.021Z,17.90
2018-10-01T13:49:52.749Z,17.50
2018-10-01T13:52:22.161Z,17.30
2018-10-01T13:54:51.463Z,17.20
2018-10-01T13:57:20.121Z,17.10
2018-10-01T13:59:48.693Z,17.00
2018-10-01T14:02:17.560Z,17.00
2018-10-01T14:04:46.165Z,17.10
2018-10-01T14:07:14.783Z,17.10
2018-10-01T14:09:43.396Z,17.00
2018-10-01T14:12:12.733Z,16.90
2018-10-01T14:14:41.463Z,16.80
2018-10-01T14:17:10.065Z,17.30
2018-10-01T14:19:38.672Z,18.30
2018-10-01T14:22:07.195Z,18.40
2018-10-01T14:24:35.839Z,19.20
2018-10-01T14:27:04.412Z,19.90
2018-10-01T14:29:33.143Z,20.50
2018-10-01T14:32:01.829Z,20.30
2018-10-01T14:34:30.571Z,20.20
2018-10-01T14:36:59.097Z,19.70
2018-10-01T14:39:27.697Z,19.40
2018-10-01T14:41:56.253Z,19.10
2018-10-01T14:44:24.796Z,18.90
2018-10-01T14:46:53.509Z,18.70
2018-10-01T14:49:22.268Z,18.80
2018-10-01T14:51:51.106Z,18.80
2018-10-01T14:54:19.821Z,18.60
2018-10-01T14:56:48.699Z,18.80
2018-10-01T14:59:17.607Z,18.70
2018-10-01T15:01:46.212Z,18.50
2018-10-01T15:04:14.874Z,17.90
2018-10-01T15:06:43.517Z,17.40
2018-10-01T15:09:12.652Z,17.00
2018-10-01T15:11:41.402Z,16.80
2018-10-01T15:14:10.793Z,16.50
2018-10-01T15:16:39.505Z,16.20
2018-10-01T15:19:08.382Z,15.90
2018-10-01T15:21:37.033Z,15.80
2018-10-01T15:24:05.674Z,15.80
2018-10-01T15:26:34.391Z,15.80
2018-10-01T15:29:03.172Z,15.90
2018-10-01T15:31:31.885Z,15.90
2018-10-01T15:34:00.669Z,16.00
2018-10-01T15:36:29.326Z,15.90
2018-10-01T15:38:58.032Z,16.00
2018-10-01T15:41:26.585Z,16.00
2018-10-01T15:43:55.181Z,16.00
2018-10-01T15:46:24.060Z,15.90
2018-10-01T15:48:52.612Z,15.80
2018-10-01T15:51:21.403Z,15.70
2018-10-01T15:53:50.465Z,15.50
2018-10-01T15:56:19.020Z,15.30
2018-10-01T15:58:47.576Z,15.10
2018-10-01T16:01:16.279Z,14.80
2018-10-01T16:03:45.955Z,14.60
2018-10-01T16:06:14.982Z,14.40
2018-10-01T16:08:43.686Z,14.30
2018-10-01T16:11:12.433Z,14.20
2018-10-01T16:13:41.222Z,14.10
2018-10-01T16:16:10.041Z,14.10
2018-10-01T16:18:38.873Z,13.90
2018-10-01T16:21:07.470Z,13.90
2018-10-01T16:23:36.254Z,13.90
2018-10-01T16:26:04.793Z,14.00
2018-10-01T16:28:33.365Z,13.90
2018-10-01T16:31:01.887Z,13.80
2018-10-01T16:33:30.489Z,13.70
2018-10-01T16:35:59.054Z,13.60
2018-10-01T16:38:28.475Z,13.50
2018-10-01T16:40:57.078Z,13.50
2018-10-01T16:43:25.690Z,13.40
2018-10-01T16:45:54.255Z,13.40
2018-10-01T16:48:22.868Z,13.30
2018-10-01T16:50:51.452Z,13.30
2018-10-01T16:53:19.971Z,13.40
2018-10-01T16:55:48.540Z,13.40
2018-10-01T16:58:17.495Z,13.50
2018-10-01T17:00:46.654Z,13.60
2018-10-01T17:03:15.225Z,13.60
2018-10-01T17:05:44.300Z,13.60
2018-10-01T17:08:12.989Z,13.50
2018-10-01T17:10:41.553Z,13.40
2018-10-01T17:13:10.223Z,13.30
2018-10-01T17:15:38.764Z,13.20
2018-10-01T17:18:07.480Z,13.00
2018-10-01T17:20:36.988Z,12.80
2018-10-01T17:23:05.643Z,12.60
2018-10-01T17:25:34.314Z,12.50
2018-10-01T17:28:02.993Z,12.40
2018-10-01T17:30:31.630Z,12.40
2018-10-01T17:33:01.210Z,12.30
2018-10-01T17:35:29.893Z,12.40
2018-10-01T17:37:58.482Z,12.40
2018-10-01T17:40:27.178Z,12.40
2018-10-01T17:42:55.699Z,12.40
2018-10-01T17:45:24.386Z,12.30
2018-10-01T17:47:53.588Z,12.30
2018-10-01T17:50:22.229Z,12.20
2018-10-01T17:52:50.945Z,12.10
2018-10-01T17:55:19.574Z,12.00
2018-10-01T17:57:48.979Z,12.00
2018-10-01T18:00:17.762Z,12.00
2018-10-01T18:02:46.359Z,11.90
2018-10-01T18:05:15.968Z,11.80
2018-10-01T18:07:44.563Z,11.80
2018-10-01T18:10:13.155Z,11.70
2018-10-01T18:12:41.886Z,11.60
2018-10-01T18:15:10.874Z,11.60
2018-10-01T18:17:39.445Z,11.60
2018-10-01T18:20:08.262Z,11.60
2018-10-01T18:22:37.741Z,11.80
2018-10-01T18:25:08.220Z,11.80
2018-10-01T18:27:36.780Z,11.80
2018-10-01T18:30:05.980Z,11.80
2018-10-01T18:32:35.301Z,11.80
2018-10-01T18:35:03.969Z,11.80
2018-10-01T18:37:32.621Z,11.70
2018-10-01T18:40:01.228Z,11.70
2018-10-01T18:42:29.943Z,11.80
2018-10-01T18:44:58.657Z,11.80
2018-10-01T18:47:27.260Z,11.80
2018-10-01T18:49:55.812Z,11.90
2018-10-01T18:52:24.390Z,11.80
2018-10-01T18:54:53.046Z,11.80
2018-10-01T18:57:21.748Z,11.70
2018-10-01T18:59:50.451Z,11.90
2018-10-01T19:02:19.433Z,11.80
2018-10-01T19:04:48.095Z,11.80
2018-10-01T19:07:16.657Z,11.80
2018-10-01T19:09:45.219Z,12.00
2018-10-01T19:12:13.951Z,12.10
2018-10-01T19:14:42.568Z,12.00
2018-10-01T19:17:11.290Z,11.80
2018-10-01T19:19:40.253Z,11.60
2018-10-01T19:22:08.854Z,11.60
2018-10-01T19:24:38.211Z,11.60
2018-10-01T19:27:07.236Z,11.70
2018-10-01T19:29:35.964Z,11.70
2018-10-01T19:32:04.707Z,11.70
2018-10-01T19:34:33.540Z,11.80
2018-10-01T19:37:02.208Z,11.90
2018-10-01T19:39:31.183Z,12.00
2018-10-01T19:41:59.900Z,12.00
2018-10-01T19:44:28.727Z,12.00
2018-10-01T19:46:57.451Z,12.00
2018-10-01T19:49:26.299Z,12.00
2018-10-01T19:51:55.174Z,12.00
2018-10-01T19:54:23.770Z,12.00
2018-10-01T19:56:52.421Z,12.00
2018-10-01T19:59:21.279Z,12.00
2018-10-01T20:01:49.882Z,12.00
2018-10-01T20:04:18.506Z,12.00
2018-10-01T20:06:47.102Z,11.90
2018-10-01T20:09:16.335Z,11.90
2018-10-01T20:11:44.898Z,11.80
2018-10-01T20:14:13.554Z,11.70
2018-10-01T20:16:42.220Z,11.60
2018-10-01T20:19:11.180Z,11.60
2018-10-01T20:21:40.016Z,11.50
2018-10-01T20:24:08.665Z,11.50
2018-10-01T20:26:37.384Z,11.50
2018-10-01T20:29:06.457Z,11.50
2018-10-01T20:31:35.017Z,11.50
2018-10-01T20:34:03.650Z,11.50
2018-10-01T20:36:32.453Z,11.50
2018-10-01T20:39:01.127Z,11.50
2018-10-01T20:41:29.919Z,11.50
2018-10-01T20:43:58.569Z,11.40
2018-10-01T20:46:27.675Z,11.40
2018-10-01T20:48:56.338Z,11.40
2018-10-01T20:51:24.911Z,11.40
2018-10-01T20:53:53.565Z,11.40
2018-10-01T20:56:22.350Z,11.40
2018-10-01T20:58:51.006Z,11.40
2018-10-01T21:01:19.851Z,11.50
2018-10-01T21:03:49.047Z,11.50
2018-10-01T21:06:17.698Z,11.50
2018-10-01T21:08:46.365Z,11.50
2018-10-01T21:11:15.010Z,11.50
2018-10-01T21:13:43.680Z,11.50
2018-10-01T21:16:12.343Z,11.50
2018-10-01T21:18:41.048Z,11.50
2018-10-01T21:21:09.759Z,11.60
2018-10-01T21:23:38.418Z,11.60
2018-10-01T21:26:07.797Z,11.60
2018-10-01T21:28:36.446Z,11.60
2018-10-01T21:31:05.205Z,11.60
2018-10-01T21:33:33.786Z,11.60
2018-10-01T21:36:02.731Z,11.70
2018-10-01T21:38:31.381Z,11.70
2018-10-01T21:41:00.020Z,11.70
2018-10-01T21:43:29.602Z,11.70
2018-10-01T21:45:58.245Z,11.70
2018-10-01T21:48:26.922Z,11.80
2018-10-01T21:50:55.681Z,11.80
2018-10-01T21:53:24.294Z,11.80
2018-10-01T21:55:53.169Z,11.80
2018-10-01T21:58:22.152Z,11.80
2018-10-01T22:00:56.641Z,11.90
2018-10-01T22:03:25.428Z,11.90
2018-10-01T22:05:54.406Z,12.00
2018-10-01T22:08:23.125Z,12.00
2018-10-01T22:10:51.754Z,12.10
2018-10-01T22:13:20.370Z,12.20
2018-10-01T22:15:48.913Z,12.10
2018-10-01T22:18:19.101Z,12.20
2018-10-01T22:20:47.911Z,12.20
2018-10-01T22:23:16.958Z,12.20
2018-10-01T22:25:45.591Z,12.30
2018-10-01T22:28:14.186Z,12.30
2018-10-01T22:30:43.325Z,12.20
2018-10-01T22:33:12.273Z,12.20
2018-10-01T22:35:40.951Z,12.20
2018-10-01T22:38:09.587Z,12.20
2018-10-01T22:40:38.219Z,12.20
2018-10-01T22:43:06.885Z,12.20
2018-10-01T22:45:35.461Z,12.20
2018-10-01T22:48:05.229Z,12.30
2018-10-01T22:50:34.413Z,12.30
2018-10-01T22:53:03.158Z,12.30
2018-10-01T22:55:31.867Z,12.30
2018-10-01T22:58:00.509Z,12.40
2018-10-01T23:00:29.085Z,12.40
2018-10-01T23:02:58.004Z,12.40
2018-10-01T23:05:27.166Z,12.40
2018-10-01T23:07:55.762Z,12.40
2018-10-01T23:10:24.508Z,12.40
2018-10-01T23:12:53.677Z,12.50
2018-10-01T23:15:22.366Z,12.50
2018-10-01T23:17:51.014Z,12.50
2018-10-01T23:20:19.594Z,12.50
2018-10-01T23:22:48.196Z,12.50
2018-10-01T23:25:16.789Z,12.50
2018-10-01T23:27:45.544Z,12.50
2018-10-01T23:30:14.163Z,12.50
2018-10-01T23:32:42.720Z,12.60
2018-10-01T23:35:11.394Z,12.60
2018-10-01T23:37:40.006Z,12.50
2018-10-01T23:40:08.688Z,12.50
2018-10-01T23:42:37.444Z,12.50
2018-10-01T23:45:06.132Z,12.40
2018-10-01T23:47:34.765Z,12.40
2018-10-01T23:50:03.424Z,12.40
2018-10-01T23:52:31.996Z,12.40
2018-10-01T23:55:00.616Z,12.40
2018-10-01T23:57:30.378Z,12.40
2018-10-01T23:59:59.000Z,12.40
